createdAt,value
2018-04-17T00:00:05.557Z,46
2018-04-17T00:15:05.304Z,46
2018-04-17T00:30:05.398Z,46
2018-04-17T00:45:05.252Z,45
2018-04-17T01:00:04.952Z,46
2018-04-17T01:15:04.738Z,46
2018-04-17T01:30:04.396Z,45
2018-04-17T01:45:04.846Z,47
2018-04-17T02:00:04.419Z,45
2018-04-17T02:15:05.131Z,45
2018-04-17T02:30:05.179Z,46
2018-04-17T02:45:05.079Z,45
2018-04-17T03:00:05.164Z,47
2018-04-17T03:15:04.843Z,46
2018-04-17T03:30:04.953Z,47
2018-04-17T03:45:04.413Z,46
2018-04-17T04:00:05.440Z,49
2018-04-17T04:15:04.952Z,48
2018-04-17T04:30:05.326Z,50
2018-04-17T04:45:05.266Z,51
2018-04-17T05:00:04.990Z,52
2018-04-17T05:15:04.703Z,54
2018-04-17T05:30:04.909Z,62
2018-04-17T05:45:04.986Z,54
2018-04-17T06:00:05.141Z,54
2018-04-17T06:15:04.622Z,55
2018-04-17T06:30:04.813Z,54
2018-04-17T06:45:04.835Z,55
2018-04-17T07:00:04.434Z,54
2018-04-17T07:15:04.448Z,52
2018-04-17T07:30:04.640Z,58
2018-04-17T07:45:05.268Z,68
2018-04-17T08:00:05.353Z,68
2018-04-17T08:15:05.352Z,66
2018-04-17T08:30:04.591Z,69
2018-04-17T08:45:05.062Z,68
2018-04-17T09:00:04.628Z,61
2018-04-17T09:15:04.672Z,62
2018-04-17T09:30:04.832Z,66
2018-04-17T09:45:06.333Z,60
2018-04-17T10:00:04.736Z,57
2018-04-17T10:15:05.173Z,57
2018-04-17T10:30:04.443Z,55
2018-04-17T10:45:04.483Z,54
2018-04-17T11:00:04.497Z,53
2018-04-17T11:15:05.092Z,53
2018-04-17T11:30:04.805Z,53
2018-04-17T11:45:05.307Z,52
2018-04-17T12:00:04.411Z,51
2018-04-17T12:15:04.444Z,51
2018-04-17T12:30:05.087Z,50
2018-04-17T12:45:04.645Z,50
2018-04-17T13:00:04.738Z,50
2018-04-17T13:15:04.675Z,48
2018-04-17T13:30:04.512Z,49
2018-04-17T13:45:05.487Z,50
2018-04-17T14:00:05.612Z,51
2018-04-17T14:15:05.104Z,48
2018-04-17T14:30:04.840Z,52
2018-04-17T14:45:04.946Z,52
2018-04-17T15:00:05.047Z,52
2018-04-17T15:15:05.236Z,49
2018-04-17T15:30:05.549Z,52
2018-04-17T15:45:05.050Z,49
2018-04-17T16:00:05.114Z,54
2018-04-17T16:15:04.534Z,50
2018-04-17T16:30:05.523Z,56
2018-04-17T16:45:04.687Z,53
2018-04-17T17:00:05.064Z,49
2018-04-17T17:15:04.599Z,51
2018-04-17T17:30:05.596Z,52
2018-04-17T17:45:05.398Z,59
2018-04-17T18:00:05.209Z,54
2018-04-17T18:15:04.754Z,52
2018-04-17T18:30:05.324Z,53
2018-04-17T18:45:05.444Z,53
2018-04-17T19:00:04.904Z,54
2018-04-17T19:15:04.709Z,56
2018-04-17T19:30:05.092Z,53
2018-04-17T19:45:04.950Z,53
2018-04-17T20:00:04.713Z,55
2018-04-17T20:15:05.728Z,57
2018-04-17T20:30:05.479Z,51
2018-04-17T20:45:04.973Z,52
2018-04-17T21:00:04.464Z,50
2018-04-17T21:15:04.600Z,49
2018-04-17T21:30:05.155Z,49
2018-04-17T21:45:04.848Z,50
2018-04-17T22:00:05.251Z,47
2018-04-17T22:15:05.322Z,48
2018-04-17T22:30:05.170Z,47
2018-04-17T22:45:04.955Z,46
2018-04-17T23:00:05.040Z,47
2018-04-17T23:15:04.515Z,47
2018-04-17T23:30:05.541Z,45
2018-04-17T23:45:04.971Z,46
